Time;durP1;ratioP1;P1;durP2;ratioP2;P2;SDS_P1;SDS_P2;PMS_P1;PMS_P2;Temp;Humidity;BMP_temperature;BMP_pressure;BME280_temperature;BME280_humidity;BME280_pressure;Samples;Min_cycle;Max_cycle;Signal;HPM_P1;HPM_P2
2023/03/30 00:00:32;;;;;;;3.10;2.30;;;17.50;61.90;18.60;99992.00;;;;5009121;28;20183;-46
2023/03/30 00:03:01;;;;;;;2.70;2.10;;;17.50;61.90;18.60;99986.00;;;;5008984;28;20175;-47
2023/03/30 00:05:28;;;;;;;2.40;2.20;;;17.60;62.00;18.60;99983.00;;;;5008857;28;20678;-47
2023/03/30 00:07:54;;;;;;;2.40;2.10;;;17.50;61.90;18.60;99980.00;;;;5009069;28;20194;-47
2023/03/30 00:10:20;;;;;;;2.40;2.20;;;17.50;61.90;18.60;99988.00;;;;5008616;28;20577;-46
2023/03/30 00:12:47;;;;;;;2.00;1.83;;;17.60;62.20;18.60;99981.00;;;;5009075;28;20191;-46
2023/03/30 00:15:14;;;;;;;3.93;2.20;;;17.50;62.10;18.60;99971.00;;;;5009016;28;20171;-46
2023/03/30 00:17:40;;;;;;;2.30;2.07;;;17.50;62.20;18.60;99962.00;;;;5007131;28;20182;-47
2023/03/30 00:20:10;;;;;;;2.67;2.10;;;17.50;62.30;18.60;99963.00;;;;5009173;28;20544;-47
2023/03/30 00:22:40;;;;;;;3.00;1.90;;;17.50;62.20;18.60;99958.00;;;;5008813;28;20200;-46
2023/03/30 00:25:11;;;;;;;2.63;2.10;;;17.50;62.30;18.60;99955.00;;;;5008724;28;20187;-45
2023/03/30 00:27:37;;;;;;;2.60;2.23;;;17.50;62.10;18.60;99958.00;;;;5008784;28;20191;-46
2023/03/30 00:30:12;;;;;;;2.77;2.17;;;17.50;62.10;18.60;99942.00;;;;5008688;28;20828;-46
2023/03/30 00:32:38;;;;;;;2.57;2.10;;;17.50;62.10;18.60;99955.00;;;;4992037;28;20226;-45
2023/03/30 00:35:04;;;;;;;2.63;2.20;;;17.50;62.10;18.60;99951.00;;;;5008621;28;20177;-47
2023/03/30 00:37:31;;;;;;;2.53;2.10;;;17.50;62.10;18.60;99954.00;;;;5008504;28;20549;-46
2023/03/30 00:39:56;;;;;;;2.77;2.10;;;17.50;62.10;18.50;99935.00;;;;5007685;28;20175;-46
2023/03/30 00:42:22;;;;;;;3.33;2.30;;;17.40;61.90;18.60;99964.00;;;;5008355;28;20216;-46
2023/03/30 00:45:20;;;;;;;4.07;2.10;;;17.50;62.10;18.30;99964.00;;;;5008523;28;20642;-46
2023/03/30 00:48:09;;;;;;;3.13;2.13;;;17.40;62.00;18.50;99975.00;;;;5008420;28;20625;-46
2023/03/30 00:50:45;;;;;;;3.60;2.20;;;17.50;62.10;18.50;99957.00;;;;5008382;28;20658;-47
2023/03/30 00:53:33;;;;;;;2.90;2.10;;;17.40;62.00;18.50;99947.00;;;;5007373;28;20254;-47
2023/03/30 00:56:00;;;;;;;2.40;2.00;;;17.40;62.00;18.50;99932.00;;;;5008794;28;20166;-47
2023/03/30 00:58:25;;;;;;;3.23;2.20;;;17.50;62.10;18.50;99918.00;;;;5008319;28;20329;-46
2023/03/30 01:00:51;;;;;;;2.30;2.07;;;17.40;62.10;18.50;99932.00;;;;5006960;28;20621;-46
2023/03/30 01:03:31;;;;;;;2.30;1.90;;;17.40;62.10;18.50;99913.00;;;;5006973;28;20182;-46
2023/03/30 01:06:00;;;;;;;3.37;2.13;;;17.40;61.80;18.50;99904.00;;;;5007490;28;20178;-47
2023/03/30 01:08:31;;;;;;;2.53;2.20;;;17.40;61.70;18.50;99894.00;;;;5007060;28;20237;-46
2023/03/30 01:11:00;;;;;;;2.80;2.30;;;17.40;61.90;18.50;99896.00;;;;5007426;28;20610;-45
2023/03/30 01:13:29;;;;;;;3.00;2.33;;;17.40;61.80;18.50;99886.00;;;;5008366;28;20186;-46
2023/03/30 01:16:07;;;;;;;2.90;2.10;;;17.40;61.90;18.40;99899.00;;;;5007314;28;20189;-47
2023/03/30 01:18:46;;;;;;;3.17;2.37;;;17.40;61.90;18.40;99906.00;;;;5008460;28;20245;-46
2023/03/30 01:21:54;;;;;;;3.20;2.30;;;17.40;61.90;18.50;99894.00;;;;5007160;28;20213;-47
2023/03/30 01:25:06;;;;;;;2.57;1.90;;;17.40;61.70;18.40;99905.00;;;;5008638;28;20237;-47
2023/03/30 01:27:44;;;;;;;2.50;2.20;;;17.30;61.60;18.40;99896.00;;;;5005915;28;20202;-46
2023/03/30 01:31:07;;;;;;;2.97;2.00;;;17.30;61.60;18.40;99844.00;;;;5004892;28;20190;-46
2023/03/30 01:34:01;;;;;;;2.33;2.10;;;17.30;61.50;18.40;99921.00;;;;5007039;28;20196;-46
2023/03/30 01:36:50;;;;;;;2.80;2.23;;;17.30;61.50;18.40;99919.00;;;;5007876;28;20332;-46
2023/03/30 01:40:19;;;;;;;4.07;2.30;;;17.30;61.40;18.40;99919.00;;;;5010289;28;20168;-45
2023/03/30 01:43:28;;;;;;;2.17;1.90;;;17.30;61.30;18.30;99931.00;;;;5011220;28;20235;-46
2023/03/30 01:46:00;;;;;;;2.93;2.03;;;17.30;61.40;18.30;99914.00;;;;5010015;28;20273;-46
2023/03/30 01:48:46;;;;;;;4.30;2.40;;;17.30;61.30;18.30;99919.00;;;;5010403;28;20210;-46
2023/03/30 01:51:19;;;;;;;3.50;2.30;;;17.30;61.30;18.30;99905.00;;;;5011407;28;20199;-45
2023/03/30 01:54:02;;;;;;;2.83;2.20;;;17.30;61.40;18.30;99912.00;;;;5010283;28;20174;-46
2023/03/30 01:56:43;;;;;;;2.53;2.17;;;17.30;61.60;18.30;99919.00;;;;5011816;28;20182;-47
2023/03/30 01:59:21;;;;;;;3.63;2.30;;;17.30;61.60;18.30;99927.00;;;;5009929;28;20187;-47
2023/03/30 02:01:49;;;;;;;3.07;2.10;;;17.30;61.60;18.30;99931.00;;;;5009983;28;20191;-47
2023/03/30 02:04:15;;;;;;;3.53;2.10;;;17.30;61.50;18.30;99923.00;;;;5010045;28;20184;-46
2023/03/30 02:06:45;;;;;;;2.80;2.30;;;17.30;61.40;18.30;99921.00;;;;5009953;28;20189;-47
2023/03/30 02:09:14;;;;;;;3.27;2.30;;;17.20;61.30;18.30;99932.00;;;;5010000;28;20194;-47
2023/03/30 02:11:42;;;;;;;2.97;2.17;;;17.30;61.40;18.30;99916.00;;;;5009639;28;20194;-47
2023/03/30 02:14:08;;;;;;;2.13;1.93;;;17.20;61.50;18.30;99913.00;;;;5009712;28;20178;-47
2023/03/30 02:16:49;;;;;;;3.30;2.07;;;17.30;61.60;18.30;99918.00;;;;5009499;28;20547;-47
2023/03/30 02:19:15;;;;;;;2.67;2.10;;;17.20;61.40;18.30;99900.00;;;;5009668;28;20210;-47
2023/03/30 02:21:42;;;;;;;2.37;2.03;;;17.20;61.50;18.30;99909.00;;;;5009762;28;20201;-47
2023/03/30 02:24:16;;;;;;;3.37;2.47;;;17.20;61.40;18.30;99880.00;;;;5009427;28;20198;-48
2023/03/30 02:26:46;;;;;;;2.63;2.30;;;17.20;61.40;18.30;99891.00;;;;5009557;28;20712;-46
2023/03/30 02:29:13;;;;;;;2.73;2.10;;;17.20;61.30;18.30;99880.00;;;;5009612;28;20184;-47
2023/03/30 02:31:39;;;;;;;2.13;1.93;;;17.20;61.30;18.30;99879.00;;;;5010828;28;20192;-47
2023/03/30 02:34:18;;;;;;;3.03;2.40;;;17.20;61.30;18.30;99875.00;;;;5010726;28;20168;-47
2023/03/30 02:37:10;;;;;;;2.50;2.13;;;17.20;61.30;18.30;99873.00;;;;5009886;28;20262;-46
2023/03/30 02:40:08;;;;;;;3.43;2.43;;;17.20;61.30;18.30;99859.00;;;;5009653;28;20177;-45
2023/03/30 02:43:07;;;;;;;3.27;2.30;;;17.20;61.40;18.20;99826.00;;;;5008996;28;20316;-46
2023/03/30 02:46:10;;;;;;;3.97;2.30;;;17.20;61.40;18.20;99804.00;;;;5009088;28;20196;-45
2023/03/30 02:49:00;;;;;;;2.37;2.07;;;17.20;61.30;18.20;99826.00;;;;5008789;28;20195;-45
2023/03/30 02:51:38;;;;;;;3.03;2.07;;;17.20;61.40;18.20;99859.00;;;;5009000;28;20217;-46
2023/03/30 02:54:46;;;;;;;3.63;2.03;;;17.20;61.40;18.20;99853.00;;;;5010149;28;20281;-46
2023/03/30 02:57:49;;;;;;;2.47;2.07;;;17.20;61.40;18.20;99831.00;;;;5009000;28;20503;-46
2023/03/30 03:00:39;;;;;;;2.40;2.00;;;17.20;61.40;18.20;99841.00;;;;5008815;28;20171;-46
2023/03/30 03:03:34;;;;;;;2.93;2.13;;;17.20;61.50;18.20;99825.00;;;;5008681;28;20714;-46
2023/03/30 03:06:03;;;;;;;4.53;2.30;;;17.20;61.50;18.20;99817.00;;;;5008585;28;20183;-46
2023/03/30 03:08:34;;;;;;;2.40;2.00;;;17.10;61.40;18.20;99824.00;;;;5008648;28;20256;-46
2023/03/30 03:11:00;;;;;;;2.57;2.03;;;17.20;61.50;18.20;99824.00;;;;5008655;28;20204;-46
2023/03/30 03:13:26;;;;;;;3.63;2.30;;;17.10;61.40;18.20;99818.00;;;;5009834;28;20172;-45
2023/03/30 03:15:54;;;;;;;3.20;2.00;;;17.10;61.40;18.20;99819.00;;;;5010001;28;20653;-45
2023/03/30 03:18:20;;;;;;;2.13;1.90;;;17.20;61.60;18.20;99822.00;;;;5011148;28;20194;-45
2023/03/30 03:20:46;;;;;;;3.40;2.30;;;17.20;61.70;18.20;99822.00;;;;5009630;28;20181;-46
2023/03/30 03:23:12;;;;;;;2.60;2.10;;;17.10;61.60;18.20;99823.00;;;;5009603;28;20548;-47
2023/03/30 03:25:37;;;;;;;2.33;2.10;;;17.10;62.40;18.20;99826.00;;;;5009227;28;20189;-47
2023/03/30 03:28:03;;;;;;;9.03;2.70;;;17.10;61.60;18.20;99813.00;;;;5009544;28;20790;-47
2023/03/30 03:30:29;;;;;;;7.93;2.30;;;17.20;61.80;18.20;99818.00;;;;5010771;28;20181;-47
2023/03/30 03:32:55;;;;;;;11.30;2.30;;;17.20;61.90;18.20;99801.00;;;;5012952;28;20222;-47
2023/03/30 03:35:21;;;;;;;3.37;2.20;;;17.20;61.90;18.20;99809.00;;;;5012668;28;20175;-46
2023/03/30 03:37:47;;;;;;;3.43;2.07;;;17.20;61.90;18.20;99822.00;;;;5006140;28;20545;-47
2023/03/30 03:40:13;;;;;;;4.57;2.30;;;17.20;61.90;18.20;99820.00;;;;5009280;28;20190;-47
2023/03/30 03:42:39;;;;;;;3.87;2.27;;;17.20;62.10;18.20;99799.00;;;;5009433;28;20208;-46
2023/03/30 03:45:06;;;;;;;5.50;2.40;;;17.10;62.00;18.20;99796.00;;;;5009321;28;20351;-47
2023/03/30 03:47:33;;;;;;;6.00;2.30;;;17.20;61.90;18.20;99804.00;;;;5011517;28;20200;-47
2023/03/30 03:50:02;;;;;;;2.83;2.10;;;17.10;61.70;18.10;99801.00;;;;5010742;28;20177;-47
2023/03/30 03:52:29;;;;;;;4.37;2.20;;;17.10;61.40;18.10;99791.00;;;;5010308;28;20193;-47
2023/03/30 03:54:54;;;;;;;5.50;2.40;;;17.10;61.30;18.10;99786.00;;;;5010648;28;20185;-47
2023/03/30 03:57:22;;;;;;;4.03;2.40;;;17.10;60.90;18.10;99794.00;;;;5010403;28;20271;-47
2023/03/30 03:59:48;;;;;;;4.53;2.40;;;17.10;60.90;18.10;99808.00;;;;5010172;28;20653;-47
2023/03/30 04:02:14;;;;;;;3.90;2.70;;;17.10;60.90;18.00;99795.00;;;;5010145;28;20681;-47
2023/03/30 04:04:40;;;;;;;3.53;2.40;;;17.00;60.40;18.00;99776.00;;;;5010476;28;20183;-47
2023/03/30 04:07:06;;;;;;;4.37;2.50;;;17.10;60.30;18.00;99769.00;;;;5010188;28;20222;-46
2023/03/30 04:09:31;;;;;;;4.53;2.40;;;17.00;60.30;18.00;99773.00;;;;5010435;28;20182;-46
2023/03/30 04:11:57;;;;;;;4.67;2.60;;;17.00;60.40;18.00;99768.00;;;;5010416;28;20190;-46
2023/03/30 04:14:23;;;;;;;4.97;2.70;;;17.00;60.10;18.00;99769.00;;;;5010277;28;20663;-46
2023/03/30 04:16:50;;;;;;;3.80;2.80;;;17.00;60.00;18.00;99769.00;;;;5010402;28;20172;-46
2023/03/30 04:19:16;;;;;;;4.57;2.70;;;17.00;60.00;17.90;99767.00;;;;5010189;28;20260;-46
2023/03/30 04:21:45;;;;;;;5.73;2.50;;;17.00;59.90;17.90;99764.00;;;;5010193;28;20203;-45
2023/03/30 04:24:12;;;;;;;6.47;2.70;;;17.00;60.10;17.90;99754.00;;;;5004801;28;20194;-46
2023/03/30 04:26:40;;;;;;;4.27;2.40;;;17.00;60.00;17.90;99757.00;;;;5010927;28;20184;-46
2023/03/30 04:29:06;;;;;;;4.17;2.70;;;16.90;59.80;17.90;99774.00;;;;5010340;28;20186;-47
2023/03/30 04:31:33;;;;;;;5.70;2.70;;;17.00;59.90;17.80;99764.00;;;;5009924;28;20210;-46
2023/03/30 04:34:01;;;;;;;4.07;2.77;;;16.90;59.80;17.90;99761.00;;;;5009901;28;20709;-46
2023/03/30 04:36:27;;;;;;;4.67;2.57;;;16.90;59.80;17.90;99761.00;;;;5009695;28;20179;-47
2023/03/30 04:38:59;;;;;;;4.50;2.60;;;16.90;59.90;17.90;99780.00;;;;5008712;28;20177;-47
2023/03/30 04:41:32;;;;;;;5.70;2.60;;;16.90;59.90;17.90;99780.00;;;;5009399;28;20216;-47
2023/03/30 04:44:00;;;;;;;3.00;2.50;;;16.90;59.90;17.90;99768.00;;;;5009590;28;20168;-46
2023/03/30 04:46:26;;;;;;;4.60;2.87;;;16.90;59.90;17.80;99771.00;;;;5009247;28;20286;-45
2023/03/30 04:48:51;;;;;;;5.17;3.10;;;16.80;59.80;17.80;99784.00;;;;5009102;28;20184;-46
2023/03/30 04:51:17;;;;;;;6.00;2.80;;;16.80;59.80;17.80;99785.00;;;;5009378;28;20226;-46
2023/03/30 04:53:43;;;;;;;5.97;3.00;;;16.80;59.80;17.80;99781.00;;;;5007865;28;20247;-45
2023/03/30 04:56:08;;;;;;;6.03;3.13;;;16.70;59.80;17.70;99784.00;;;;5008410;28;20171;-45
2023/03/30 04:58:34;;;;;;;4.20;2.90;;;16.70;59.70;17.70;99792.00;;;;5008327;28;20184;-46
2023/03/30 05:01:00;;;;;;;6.43;3.10;;;16.80;59.80;17.80;99789.00;;;;5005906;28;20212;-46
2023/03/30 05:03:26;;;;;;;6.20;2.63;;;16.80;59.70;17.80;99774.00;;;;5007319;28;20176;-46
2023/03/30 05:05:51;;;;;;;5.27;3.10;;;16.80;59.80;17.80;99790.00;;;;5006507;28;20237;-46
2023/03/30 05:08:17;;;;;;;5.13;2.80;;;16.90;59.90;17.90;99790.00;;;;5009392;28;20701;-46
2023/03/30 05:10:43;;;;;;;4.27;2.80;;;16.90;59.90;17.90;99785.00;;;;5001556;28;20197;-46
2023/03/30 05:13:08;;;;;;;4.83;2.60;;;16.90;59.90;17.90;99790.00;;;;5011324;28;20182;-46
2023/03/30 05:15:34;;;;;;;5.77;2.80;;;16.90;59.90;17.90;99793.00;;;;5014062;28;20177;-46
2023/03/30 05:18:00;;;;;;;5.87;3.07;;;16.90;59.90;17.90;99786.00;;;;5014551;28;20202;-46
2023/03/30 05:20:26;;;;;;;5.67;2.73;;;16.90;59.90;17.90;99785.00;;;;5013598;28;20677;-47
2023/03/30 05:22:52;;;;;;;6.77;3.20;;;16.90;60.00;17.90;99787.00;;;;5012179;28;20269;-46
2023/03/30 05:25:18;;;;;;;4.13;2.90;;;16.90;60.10;17.90;99793.00;;;;5013471;28;20189;-46
2023/03/30 05:27:44;;;;;;;6.23;2.87;;;16.90;60.10;18.00;99796.00;;;;5013554;28;20190;-46
2023/03/30 05:30:10;;;;;;;4.17;2.60;;;16.90;60.20;18.00;99794.00;;;;5013247;28;20691;-46
2023/03/30 05:32:36;;;;;;;4.47;2.87;;;16.90;60.30;18.00;99796.00;;;;5012854;28;20194;-46
2023/03/30 05:35:02;;;;;;;4.67;2.80;;;16.90;60.30;18.00;99792.00;;;;5013920;28;20707;-47
2023/03/30 05:37:28;;;;;;;5.50;3.03;;;16.90;60.40;18.00;99791.00;;;;5013784;28;20724;-46
2023/03/30 05:39:53;;;;;;;3.93;2.60;;;16.90;60.50;18.00;99797.00;;;;5012921;28;20179;-47
2023/03/30 05:42:20;;;;;;;4.40;2.80;;;16.90;60.50;18.00;99797.00;;;;5012805;28;20198;-46
2023/03/30 05:44:46;;;;;;;4.90;2.63;;;16.90;61.30;18.00;99800.00;;;;5012805;28;20331;-46
2023/03/30 05:47:11;;;;;;;4.23;2.80;;;16.90;60.60;18.00;99808.00;;;;5013180;28;20588;-46
2023/03/30 05:49:37;;;;;;;3.13;2.50;;;16.90;60.70;18.00;99806.00;;;;5011728;28;20182;-47
2023/03/30 05:52:03;;;;;;;4.93;2.87;;;16.90;60.70;18.00;99813.00;;;;5012296;28;20203;-46
2023/03/30 05:54:29;;;;;;;3.27;2.50;;;16.90;60.70;18.00;99809.00;;;;5012593;28;20171;-46
2023/03/30 05:56:55;;;;;;;6.07;3.00;;;16.90;60.70;18.00;99801.00;;;;5012468;28;20236;-45
2023/03/30 05:59:20;;;;;;;4.03;2.77;;;16.90;60.70;18.00;99811.00;;;;5013105;28;20701;-47
2023/03/30 06:01:46;;;;;;;2.90;2.60;;;16.90;60.70;18.00;99820.00;;;;5012152;28;20222;-46
2023/03/30 06:04:12;;;;;;;4.27;2.90;;;16.90;60.70;18.00;99808.00;;;;5012927;28;20256;-47
2023/03/30 06:06:38;;;;;;;3.43;2.50;;;16.90;60.70;18.00;99823.00;;;;5013212;28;20199;-47
2023/03/30 06:09:04;;;;;;;4.23;2.83;;;16.90;60.70;18.00;99823.00;;;;5012426;28;20241;-47
2023/03/30 06:11:30;;;;;;;3.40;2.40;;;16.90;60.80;18.00;99824.00;;;;5011741;28;20297;-47
2023/03/30 06:13:56;;;;;;;3.67;2.70;;;16.90;60.90;18.00;99819.00;;;;5012512;28;20270;-47
2023/03/30 06:16:22;;;;;;;4.30;2.70;;;16.90;60.80;18.00;99828.00;;;;5011697;28;20183;-47
2023/03/30 06:18:48;;;;;;;3.80;2.60;;;16.90;60.80;18.00;99827.00;;;;5012763;28;20176;-47
2023/03/30 06:21:14;;;;;;;3.07;2.63;;;16.90;60.90;18.00;99826.00;;;;5011729;28;20195;-46
2023/03/30 06:23:40;;;;;;;3.53;2.63;;;16.90;61.10;18.00;99827.00;;;;5011098;28;20245;-47
2023/03/30 06:26:06;;;;;;;3.33;2.80;;;16.90;60.90;18.00;99823.00;;;;5012429;28;20266;-47
2023/03/30 06:28:32;;;;;;;2.70;2.43;;;16.90;60.90;17.90;99820.00;;;;5011933;28;20202;-48
2023/03/30 06:31:00;;;;;;;4.87;2.80;;;16.90;61.10;17.90;99824.00;;;;5011084;28;20220;-48
2023/03/30 06:33:26;;;;;;;3.53;2.50;;;16.90;61.10;18.00;99830.00;;;;5011751;28;20190;-47
2023/03/30 06:35:53;;;;;;;3.80;2.60;;;16.90;61.00;17.90;99833.00;;;;5012389;28;20184;-47
2023/03/30 06:38:20;;;;;;;5.23;2.70;;;16.90;60.90;17.90;99820.00;;;;5012080;28;20185;-47
2023/03/30 06:40:45;;;;;;;4.10;2.93;;;16.90;60.90;17.90;99821.00;;;;5012164;28;20168;-47
2023/03/30 06:43:17;;;;;;;3.83;2.90;;;16.90;60.90;17.90;99824.00;;;;5012057;28;20186;-45
2023/03/30 06:45:54;;;;;;;4.00;3.03;;;16.80;60.90;17.90;99813.00;;;;5011173;28;20199;-47
2023/03/30 06:48:22;;;;;;;3.93;2.70;;;16.90;60.90;17.90;99819.00;;;;5012564;28;20211;-46
2023/03/30 06:50:49;;;;;;;3.80;2.80;;;16.90;60.90;17.90;99826.00;;;;5011353;28;20188;-47
2023/03/30 06:53:15;;;;;;;5.03;2.83;;;16.90;60.80;17.90;99826.00;;;;5010089;28;20182;-46
2023/03/30 06:55:41;;;;;;;2.87;2.50;;;16.90;60.80;17.90;99831.00;;;;5012221;28;20551;-46
2023/03/30 06:58:06;;;;;;;5.13;2.90;;;16.90;60.70;17.90;99843.00;;;;5011120;28;20179;-48
2023/03/30 07:00:33;;;;;;;3.30;2.60;;;16.90;60.70;17.90;99842.00;;;;5011208;28;20709;-46
2023/03/30 07:02:58;;;;;;;3.10;2.70;;;16.90;60.70;17.90;99843.00;;;;5010951;28;20202;-46
2023/03/30 07:05:24;;;;;;;4.63;2.70;;;16.80;60.60;17.90;99849.00;;;;5011027;28;20180;-48
2023/03/30 07:07:51;;;;;;;3.60;2.60;;;16.90;60.70;17.90;99842.00;;;;5011868;28;20184;-47
2023/03/30 07:10:17;;;;;;;3.40;2.70;;;16.90;60.70;17.90;99848.00;;;;5011615;28;20233;-46
2023/03/30 07:12:43;;;;;;;3.80;2.70;;;16.90;60.70;17.90;99839.00;;;;5011628;28;20221;-47
2023/03/30 07:15:09;;;;;;;4.77;2.60;;;16.80;60.60;17.90;99830.00;;;;5015784;28;20180;-46
2023/03/30 07:17:35;;;;;;;3.90;2.60;;;16.80;60.60;17.90;99827.00;;;;5013476;28;20181;-47
2023/03/30 07:20:02;;;;;;;5.60;3.00;;;16.80;60.60;17.60;99826.00;;;;5012787;28;20267;-47
2023/03/30 07:22:27;;;;;;;4.37;2.50;;;16.80;60.50;17.80;99841.00;;;;5009837;28;20236;-47
2023/03/30 07:24:54;;;;;;;4.37;2.63;;;16.80;60.60;17.80;99849.00;;;;5011093;28;20215;-47
2023/03/30 07:27:20;;;;;;;4.83;2.70;;;16.80;60.60;17.90;99849.00;;;;5011145;28;20195;-46
2023/03/30 07:29:46;;;;;;;3.83;2.87;;;16.90;60.70;17.80;99855.00;;;;5011410;28;20193;-45
2023/03/30 07:32:11;;;;;;;3.97;2.47;;;16.80;60.50;17.80;99843.00;;;;5010317;28;20829;-46
2023/03/30 07:34:37;;;;;;;3.90;2.67;;;16.80;60.60;17.80;99845.00;;;;5011613;28;20182;-46
2023/03/30 07:37:05;;;;;;;3.63;2.63;;;16.80;60.60;17.80;99836.00;;;;5011824;28;20759;-46
2023/03/30 07:39:30;;;;;;;3.73;2.57;;;16.80;60.60;17.80;99854.00;;;;5012554;28;20191;-46
2023/03/30 07:41:56;;;;;;;4.50;2.57;;;16.80;60.50;17.80;99852.00;;;;5013140;28;20781;-46
2023/03/30 07:44:22;;;;;;;4.90;2.60;;;16.80;60.60;17.80;99841.00;;;;5011524;28;20267;-47
2023/03/30 07:46:48;;;;;;;3.00;2.70;;;16.80;60.60;17.80;99860.00;;;;5011102;28;20218;-46
2023/03/30 07:49:14;;;;;;;3.83;2.60;;;16.80;60.60;17.70;99860.00;;;;5011353;28;20192;-46
2023/03/30 07:51:40;;;;;;;3.60;2.47;;;16.70;60.50;17.80;99864.00;;;;5010628;28;20223;-46
2023/03/30 07:54:05;;;;;;;3.83;2.77;;;16.80;60.70;17.80;99864.00;;;;5010627;28;20175;-46
2023/03/30 07:56:32;;;;;;;5.27;2.60;;;16.80;60.70;17.70;99854.00;;;;5011171;28;20180;-46
2023/03/30 07:58:58;;;;;;;4.10;2.70;;;16.80;60.70;17.70;99882.00;;;;5009605;28;20177;-46
2023/03/30 08:01:24;;;;;;;3.87;2.70;;;16.80;60.70;17.70;99868.00;;;;5010192;28;20423;-46
2023/03/30 08:03:50;;;;;;;2.90;2.40;;;16.80;60.80;17.70;99878.00;;;;5010504;28;20630;-46
2023/03/30 08:06:15;;;;;;;3.83;2.73;;;16.80;60.70;17.70;99863.00;;;;5010362;28;20186;-47
2023/03/30 08:08:42;;;;;;;3.60;2.43;;;16.70;60.50;17.70;99870.00;;;;5008932;28;20249;-46
2023/03/30 08:11:09;;;;;;;3.90;2.40;;;16.70;60.50;17.70;99868.00;;;;5008428;28;20605;-46
2023/03/30 08:13:36;;;;;;;4.97;2.50;;;16.70;60.50;17.70;99886.00;;;;5007799;28;20187;-46
2023/03/30 08:16:02;;;;;;;7.70;2.47;;;16.70;60.50;17.80;99873.00;;;;5002775;28;20189;-46
2023/03/30 08:18:28;;;;;;;3.10;2.50;;;16.80;60.80;17.80;99889.00;;;;5003075;28;20179;-46
2023/03/30 08:20:54;;;;;;;3.53;2.60;;;16.80;60.80;17.80;99909.00;;;;5010410;28;20221;-46
2023/03/30 08:23:20;;;;;;;3.93;2.33;;;16.80;60.90;17.80;99902.00;;;;5010393;28;20182;-45
2023/03/30 08:25:50;;;;;;;5.43;2.60;;;16.80;61.10;17.90;99897.00;;;;5008040;28;20199;-46
2023/03/30 08:28:15;;;;;;;3.30;2.40;;;16.80;61.10;17.90;99915.00;;;;5009537;28;20188;-45
2023/03/30 08:30:41;;;;;;;5.80;2.43;;;16.80;61.20;17.90;99909.00;;;;5009967;28;20184;-46
2023/03/30 08:33:07;;;;;;;3.13;2.30;;;16.80;61.20;17.90;99914.00;;;;5009810;28;20189;-48
2023/03/30 08:35:33;;;;;;;3.13;2.30;;;16.80;61.20;17.90;99912.00;;;;5011265;28;20188;-46
2023/03/30 08:37:59;;;;;;;4.03;2.50;;;16.80;61.20;17.90;99919.00;;;;5011333;28;20569;-47
2023/03/30 08:40:25;;;;;;;3.73;2.10;;;16.80;61.30;17.90;99915.00;;;;5002770;28;20196;-47
2023/03/30 08:43:32;;;;;;;2.87;2.20;;;16.80;61.40;17.90;99913.00;;;;5005430;28;20199;-46
2023/03/30 08:46:00;;;;;;;6.27;2.70;;;16.80;61.80;17.90;99916.00;;;;4995807;28;20273;-47
2023/03/30 08:48:30;;;;;;;4.77;2.33;;;16.80;61.70;17.90;99918.00;;;;5012062;28;20211;-46
2023/03/30 08:51:04;;;;;;;3.27;2.23;;;16.90;61.80;17.90;99927.00;;;;5012338;28;20177;-46
2023/03/30 08:53:31;;;;;;;4.87;2.30;;;16.90;61.80;17.90;99918.00;;;;5010399;28;20275;-47
2023/03/30 08:56:19;;;;;;;4.13;2.20;;;16.80;61.70;17.90;99919.00;;;;5012305;28;20183;-46
2023/03/30 08:59:14;;;;;;;3.37;2.30;;;16.90;62.00;17.90;99917.00;;;;5012881;28;20184;-46
2023/03/30 09:01:57;;;;;;;4.17;2.50;;;16.80;61.80;17.90;99907.00;;;;5014101;28;20288;-45
2023/03/30 09:04:32;;;;;;;3.10;2.30;;;16.80;61.90;17.90;99923.00;;;;5012855;28;20212;-47
2023/03/30 09:07:05;;;;;;;5.47;2.57;;;16.80;61.90;17.90;99905.00;;;;5012535;28;20257;-46
2023/03/30 09:09:40;;;;;;;4.33;2.60;;;16.80;61.90;17.90;99917.00;;;;5012639;28;20187;-46
2023/03/30 09:12:15;;;;;;;4.30;2.00;;;16.80;61.90;17.90;99924.00;;;;5012384;28;20192;-46
2023/03/30 09:14:47;;;;;;;4.00;2.13;;;16.90;62.00;17.90;99914.00;;;;5012531;28;20173;-45
2023/03/30 09:17:20;;;;;;;3.37;2.20;;;16.80;61.90;17.90;99930.00;;;;5012116;28;20186;-46
2023/03/30 09:19:56;;;;;;;3.37;2.20;;;16.80;61.90;17.90;99940.00;;;;5011913;28;20187;-47
2023/03/30 09:22:28;;;;;;;3.23;2.17;;;16.80;61.90;17.90;99941.00;;;;5013174;28;20282;-46
2023/03/30 09:24:54;;;;;;;5.73;2.43;;;16.80;62.00;17.90;99938.00;;;;5013198;28;20215;-46
2023/03/30 09:27:58;;;;;;;3.70;2.40;;;16.80;61.90;17.90;99985.00;;;;5011945;28;20316;-47
2023/03/30 09:30:40;;;;;;;3.50;2.20;;;16.80;62.00;17.90;99969.00;;;;5013542;28;20202;-45
2023/03/30 09:33:36;;;;;;;3.90;2.23;;;16.80;62.00;17.80;100007.00;;;;5011993;28;20184;-46
2023/03/30 09:36:31;;;;;;;4.07;2.30;;;16.80;62.00;17.80;100008.00;;;;5012479;28;20678;-46
2023/03/30 09:38:57;;;;;;;3.10;2.00;;;16.80;62.00;17.80;100006.00;;;;5011071;28;20201;-46
2023/03/30 09:41:55;;;;;;;3.13;1.90;;;16.80;62.00;17.80;99981.00;;;;5013099;28;20225;-46
2023/03/30 09:44:54;;;;;;;2.50;1.97;;;16.80;62.00;17.80;100010.00;;;;5011835;28;20176;-46
2023/03/30 09:47:29;;;;;;;2.37;2.03;;;16.80;62.00;17.80;100022.00;;;;5011565;28;20243;-46
2023/03/30 09:50:01;;;;;;;2.43;2.03;;;16.80;62.10;17.80;100028.00;;;;5011761;28;20656;-47
2023/03/30 09:52:35;;;;;;;2.40;1.97;;;16.80;62.10;17.80;100040.00;;;;5012532;28;20224;-46
2023/03/30 09:55:20;;;;;;;2.53;1.90;;;16.80;62.00;17.80;100042.00;;;;5012857;28;20175;-46
2023/03/30 09:57:46;;;;;;;2.67;2.00;;;16.80;62.10;17.80;100043.00;;;;5012013;28;20175;-47
2023/03/30 10:00:28;;;;;;;3.07;2.13;;;16.80;62.10;17.80;100040.00;;;;5011008;28;20741;-46
2023/03/30 10:03:02;;;;;;;2.50;1.93;;;16.80;62.10;17.80;100048.00;;;;5012304;28;20279;-45
2023/03/30 10:05:29;;;;;;;2.60;2.00;;;16.80;62.20;17.80;100057.00;;;;5011897;28;20264;-46
2023/03/30 10:08:04;;;;;;;4.37;2.00;;;16.80;62.10;17.80;100044.00;;;;5011665;28;20188;-45
2023/03/30 10:10:38;;;;;;;3.70;1.73;;;16.80;62.20;17.80;100051.00;;;;5011734;28;20173;-47
2023/03/30 10:13:12;;;;;;;3.00;2.03;;;16.70;62.20;17.80;100045.00;;;;5011200;28;20200;-46
2023/03/30 10:15:40;;;;;;;2.20;1.87;;;16.80;62.20;17.80;100048.00;;;;5012187;28;20172;-48
2023/03/30 10:18:18;;;;;;;2.90;2.07;;;16.80;62.10;17.80;100048.00;;;;5011117;28;20209;-47
2023/03/30 10:20:51;;;;;;;2.47;1.80;;;16.80;62.10;17.80;100040.00;;;;5016370;28;20183;-47
2023/03/30 10:23:18;;;;;;;2.40;2.00;;;16.80;62.10;17.80;100046.00;;;;5013040;28;20182;-46
2023/03/30 10:25:48;;;;;;;2.60;1.80;;;16.70;62.00;17.80;100033.00;;;;5012257;28;20176;-47
2023/03/30 10:28:24;;;;;;;2.00;1.80;;;16.80;62.10;17.80;100027.00;;;;5012383;28;20622;-47
2023/03/30 10:30:52;;;;;;;2.43;1.80;;;16.80;62.10;17.80;100016.00;;;;5004978;28;20483;-45
2023/03/30 10:33:18;;;;;;;3.10;1.90;;;16.80;62.10;17.80;100005.00;;;;5010698;28;20176;-47
2023/03/30 10:35:44;;;;;;;2.80;1.80;;;16.70;62.00;17.80;100021.00;;;;5010842;28;20178;-46
2023/03/30 10:38:10;;;;;;;2.07;1.80;;;16.70;62.00;17.80;100028.00;;;;5010683;28;20186;-46
2023/03/30 10:40:39;;;;;;;3.13;2.00;;;16.70;62.00;17.80;100038.00;;;;5010592;28;20189;-45
2023/03/30 10:43:11;;;;;;;2.57;1.90;;;16.70;62.10;17.80;100041.00;;;;5010836;28;20172;-46
2023/03/30 10:45:49;;;;;;;2.93;1.90;;;16.80;62.10;17.80;100046.00;;;;5010994;28;20253;-46
2023/03/30 10:48:42;;;;;;;2.07;1.63;;;16.80;62.20;17.80;100035.00;;;;5010545;28;20207;-46
2023/03/30 10:51:44;;;;;;;2.73;1.87;;;16.70;62.00;17.80;100043.00;;;;5010939;28;20200;-46
2023/03/30 10:54:33;;;;;;;2.53;1.93;;;16.70;62.00;17.80;100027.00;;;;5010739;28;20649;-47
2023/03/30 10:57:13;;;;;;;2.10;1.80;;;16.70;62.00;17.80;100031.00;;;;5010384;28;20258;-46
2023/03/30 10:59:54;;;;;;;2.03;1.80;;;16.70;62.00;17.80;100042.00;;;;5010089;28;20214;-46
2023/03/30 11:02:38;;;;;;;1.80;1.70;;;16.80;62.20;17.80;100041.00;;;;5010335;28;20208;-46
2023/03/30 11:05:18;;;;;;;1.80;1.70;;;16.80;62.20;17.70;100017.00;;;;5010673;28;20193;-46
2023/03/30 11:07:52;;;;;;;2.10;1.90;;;16.80;62.30;17.80;100040.00;;;;4988282;28;20212;-46
2023/03/30 11:10:31;;;;;;;1.93;1.70;;;16.80;62.30;17.80;100036.00;;;;5010402;28;20590;-46
2023/03/30 11:13:04;;;;;;;2.00;1.80;;;16.70;62.20;17.80;100036.00;;;;5009963;28;20226;-46